sensor_id;sensor_type;location;lat;lon;timestamp;P1;durP1;ratioP1;P2;durP2;ratioP2
23826;SDS011;12094;50.822;4.376;2023-03-08T00:02:14;23.08;;;14.23;;
23826;SDS011;12094;50.822;4.376;2023-03-08T00:05:09;23.08;;;13.80;;
23826;SDS011;12094;50.822;4.376;2023-03-08T00:07:36;22.25;;;13.68;;
23826;SDS011;12094;50.822;4.376;2023-03-08T00:10:15;21.35;;;13.18;;
23826;SDS011;12094;50.822;4.376;2023-03-08T00:12:43;27.13;;;14.25;;
23826;SDS011;12094;50.822;4.376;2023-03-08T00:15:12;23.30;;;13.27;;
23826;SDS011;12094;50.822;4.376;2023-03-08T00:24:27;22.95;;;13.60;;
23826;SDS011;12094;50.822;4.376;2023-03-08T00:27:02;24.02;;;13.38;;
23826;SDS011;12094;50.822;4.376;2023-03-08T00:29:52;21.25;;;11.98;;
23826;SDS011;12094;50.822;4.376;2023-03-08T00:32:49;24.98;;;13.15;;
23826;SDS011;12094;50.822;4.376;2023-03-08T00:35:18;23.80;;;12.57;;
23826;SDS011;12094;50.822;4.376;2023-03-08T00:46:06;22.88;;;11.68;;
23826;SDS011;12094;50.822;4.376;2023-03-08T00:54:09;21.75;;;11.45;;
23826;SDS011;12094;50.822;4.376;2023-03-08T01:07:57;21.50;;;12.45;;
23826;SDS011;12094;50.822;4.376;2023-03-08T01:11:26;24.45;;;13.02;;
23826;SDS011;12094;50.822;4.376;2023-03-08T01:14:05;22.17;;;12.45;;
23826;SDS011;12094;50.822;4.376;2023-03-08T01:16:38;21.65;;;13.05;;
23826;SDS011;12094;50.822;4.376;2023-03-08T01:19:09;24.48;;;13.68;;
23826;SDS011;12094;50.822;4.376;2023-03-08T01:21:36;22.00;;;13.18;;
23826;SDS011;12094;50.822;4.376;2023-03-08T01:24:07;29.55;;;15.32;;
23826;SDS011;12094;50.822;4.376;2023-03-08T01:26:39;24.52;;;15.27;;
23826;SDS011;12094;50.822;4.376;2023-03-08T01:29:09;26.58;;;14.93;;
23826;SDS011;12094;50.822;4.376;2023-03-08T01:31:50;23.48;;;14.10;;
23826;SDS011;12094;50.822;4.376;2023-03-08T01:34:19;22.42;;;13.07;;
23826;SDS011;12094;50.822;4.376;2023-03-08T01:37:21;24.13;;;13.27;;
23826;SDS011;12094;50.822;4.376;2023-03-08T01:39:58;23.75;;;13.75;;
23826;SDS011;12094;50.822;4.376;2023-03-08T01:42:32;25.80;;;14.05;;
23826;SDS011;12094;50.822;4.376;2023-03-08T01:45:05;23.00;;;14.27;;
23826;SDS011;12094;50.822;4.376;2023-03-08T01:47:53;23.95;;;13.32;;
23826;SDS011;12094;50.822;4.376;2023-03-08T01:50:28;24.08;;;13.70;;
23826;SDS011;12094;50.822;4.376;2023-03-08T01:52:56;23.50;;;13.60;;
23826;SDS011;12094;50.822;4.376;2023-03-08T01:55:25;24.27;;;13.77;;
23826;SDS011;12094;50.822;4.376;2023-03-08T01:57:55;22.75;;;13.05;;
23826;SDS011;12094;50.822;4.376;2023-03-08T02:00:26;25.33;;;14.30;;
23826;SDS011;12094;50.822;4.376;2023-03-08T02:02:59;24.90;;;13.70;;
23826;SDS011;12094;50.822;4.376;2023-03-08T02:05:32;21.75;;;12.65;;
23826;SDS011;12094;50.822;4.376;2023-03-08T02:08:12;20.88;;;11.25;;
23826;SDS011;12094;50.822;4.376;2023-03-08T02:10:41;23.85;;;11.57;;
23826;SDS011;12094;50.822;4.376;2023-03-08T02:13:12;19.92;;;11.02;;
23826;SDS011;12094;50.822;4.376;2023-03-08T02:15:41;21.50;;;11.82;;
23826;SDS011;12094;50.822;4.376;2023-03-08T02:18:10;21.88;;;12.07;;
23826;SDS011;12094;50.822;4.376;2023-03-08T02:20:42;20.98;;;11.88;;
23826;SDS011;12094;50.822;4.376;2023-03-08T02:23:12;20.67;;;12.25;;
23826;SDS011;12094;50.822;4.376;2023-03-08T02:25:41;21.17;;;11.80;;
23826;SDS011;12094;50.822;4.376;2023-03-08T02:28:22;23.73;;;12.25;;
23826;SDS011;12094;50.822;4.376;2023-03-08T02:30:51;22.92;;;12.35;;
23826;SDS011;12094;50.822;4.376;2023-03-08T02:33:21;22.95;;;12.93;;
23826;SDS011;12094;50.822;4.376;2023-03-08T02:35:50;24.08;;;13.18;;
23826;SDS011;12094;50.822;4.376;2023-03-08T02:40:48;22.30;;;12.45;;
23826;SDS011;12094;50.822;4.376;2023-03-08T02:43:27;22.10;;;12.63;;
23826;SDS011;12094;50.822;4.376;2023-03-08T02:46:19;22.35;;;12.25;;
23826;SDS011;12094;50.822;4.376;2023-03-08T02:49:13;24.02;;;12.07;;
23826;SDS011;12094;50.822;4.376;2023-03-08T03:04:40;24.80;;;12.95;;
23826;SDS011;12094;50.822;4.376;2023-03-08T03:07:10;24.80;;;13.07;;
23826;SDS011;12094;50.822;4.376;2023-03-08T03:10:11;22.67;;;11.90;;
23826;SDS011;12094;50.822;4.376;2023-03-08T03:12:57;20.83;;;11.13;;
23826;SDS011;12094;50.822;4.376;2023-03-08T03:15:28;16.65;;;9.15;;
23826;SDS011;12094;50.822;4.376;2023-03-08T03:17:59;17.58;;;8.77;;
23826;SDS011;12094;50.822;4.376;2023-03-08T03:20:26;15.55;;;8.57;;
23826;SDS011;12094;50.822;4.376;2023-03-08T03:22:55;14.77;;;7.88;;
23826;SDS011;12094;50.822;4.376;2023-03-08T03:25:35;17.75;;;7.72;;
23826;SDS011;12094;50.822;4.376;2023-03-08T03:28:11;12.68;;;6.70;;
23826;SDS011;12094;50.822;4.376;2023-03-08T03:30:40;11.40;;;6.32;;
23826;SDS011;12094;50.822;4.376;2023-03-08T03:33:37;13.38;;;6.65;;
23826;SDS011;12094;50.822;4.376;2023-03-08T03:36:09;12.13;;;6.30;;
23826;SDS011;12094;50.822;4.376;2023-03-08T03:38:38;12.80;;;6.38;;
23826;SDS011;12094;50.822;4.376;2023-03-08T03:41:09;10.43;;;5.97;;
23826;SDS011;12094;50.822;4.376;2023-03-08T03:43:40;9.52;;;5.20;;
23826;SDS011;12094;50.822;4.376;2023-03-08T03:46:10;8.98;;;5.30;;
23826;SDS011;12094;50.822;4.376;2023-03-08T03:48:41;9.65;;;5.00;;
23826;SDS011;12094;50.822;4.376;2023-03-08T03:51:11;8.98;;;4.78;;
23826;SDS011;12094;50.822;4.376;2023-03-08T03:53:45;7.80;;;4.53;;
23826;SDS011;12094;50.822;4.376;2023-03-08T03:56:22;6.22;;;3.75;;
23826;SDS011;12094;50.822;4.376;2023-03-08T03:58:54;7.60;;;4.10;;
23826;SDS011;12094;50.822;4.376;2023-03-08T04:01:26;6.95;;;4.05;;
23826;SDS011;12094;50.822;4.376;2023-03-08T04:04:10;7.00;;;3.85;;
23826;SDS011;12094;50.822;4.376;2023-03-08T04:06:43;6.32;;;3.40;;
23826;SDS011;12094;50.822;4.376;2023-03-08T04:11:48;7.50;;;3.63;;
23826;SDS011;12094;50.822;4.376;2023-03-08T04:14:36;6.80;;;3.55;;
23826;SDS011;12094;50.822;4.376;2023-03-08T04:17:29;7.65;;;4.43;;
23826;SDS011;12094;50.822;4.376;2023-03-08T04:20:01;6.13;;;3.90;;
23826;SDS011;12094;50.822;4.376;2023-03-08T04:22:37;6.50;;;4.05;;
23826;SDS011;12094;50.822;4.376;2023-03-08T04:25:13;9.48;;;4.22;;
23826;SDS011;12094;50.822;4.376;2023-03-08T04:27:49;7.88;;;4.03;;
23826;SDS011;12094;50.822;4.376;2023-03-08T04:30:18;6.57;;;4.00;;
23826;SDS011;12094;50.822;4.376;2023-03-08T04:32:50;6.72;;;4.10;;
23826;SDS011;12094;50.822;4.376;2023-03-08T04:35:21;8.20;;;4.40;;
23826;SDS011;12094;50.822;4.376;2023-03-08T04:37:52;8.18;;;4.38;;
23826;SDS011;12094;50.822;4.376;2023-03-08T04:40:24;7.45;;;4.25;;
23826;SDS011;12094;50.822;4.376;2023-03-08T04:42:57;7.28;;;4.47;;
23826;SDS011;12094;50.822;4.376;2023-03-08T04:45:33;6.10;;;4.18;;
23826;SDS011;12094;50.822;4.376;2023-03-08T04:48:13;8.35;;;4.50;;
23826;SDS011;12094;50.822;4.376;2023-03-08T04:50:52;8.70;;;4.28;;
23826;SDS011;12094;50.822;4.376;2023-03-08T04:53:33;7.50;;;4.47;;
23826;SDS011;12094;50.822;4.376;2023-03-08T04:56:11;9.15;;;5.07;;
23826;SDS011;12094;50.822;4.376;2023-03-08T04:58:41;8.20;;;4.20;;
23826;SDS011;12094;50.822;4.376;2023-03-08T05:01:15;7.07;;;4.90;;
23826;SDS011;12094;50.822;4.376;2023-03-08T05:03:51;6.50;;;4.38;;
23826;SDS011;12094;50.822;4.376;2023-03-08T05:06:27;6.50;;;4.13;;
23826;SDS011;12094;50.822;4.376;2023-03-08T05:08:56;7.20;;;4.18;;
23826;SDS011;12094;50.822;4.376;2023-03-08T05:11:24;8.20;;;4.25;;
23826;SDS011;12094;50.822;4.376;2023-03-08T05:14:00;6.28;;;4.45;;
23826;SDS011;12094;50.822;4.376;2023-03-08T05:16:31;6.65;;;4.38;;
23826;SDS011;12094;50.822;4.376;2023-03-08T05:19:28;6.20;;;4.10;;
23826;SDS011;12094;50.822;4.376;2023-03-08T05:24:58;6.78;;;4.47;;
23826;SDS011;12094;50.822;4.376;2023-03-08T05:27:54;6.75;;;4.50;;
23826;SDS011;12094;50.822;4.376;2023-03-08T05:30:48;7.25;;;4.70;;
23826;SDS011;12094;50.822;4.376;2023-03-08T05:34:10;7.45;;;4.88;;
23826;SDS011;12094;50.822;4.376;2023-03-08T05:36:44;8.27;;;5.20;;
23826;SDS011;12094;50.822;4.376;2023-03-08T05:39:12;7.00;;;4.90;;
23826;SDS011;12094;50.822;4.376;2023-03-08T05:41:50;7.88;;;5.28;;
23826;SDS011;12094;50.822;4.376;2023-03-08T05:44:24;7.75;;;5.18;;
23826;SDS011;12094;50.822;4.376;2023-03-08T05:50:48;8.68;;;5.63;;
23826;SDS011;12094;50.822;4.376;2023-03-08T05:53:20;8.80;;;5.20;;
23826;SDS011;12094;50.822;4.376;2023-03-08T05:56:10;8.02;;;5.30;;
23826;SDS011;12094;50.822;4.376;2023-03-08T05:58:54;9.23;;;5.00;;
23826;SDS011;12094;50.822;4.376;2023-03-08T06:01:26;6.82;;;4.72;;
23826;SDS011;12094;50.822;4.376;2023-03-08T06:04:03;6.85;;;4.75;;
23826;SDS011;12094;50.822;4.376;2023-03-08T06:06:37;8.00;;;5.10;;
23826;SDS011;12094;50.822;4.376;2023-03-08T06:09:07;8.45;;;5.32;;
23826;SDS011;12094;50.822;4.376;2023-03-08T06:11:37;7.85;;;5.57;;
23826;SDS011;12094;50.822;4.376;2023-03-08T06:14:06;7.50;;;5.60;;
23826;SDS011;12094;50.822;4.376;2023-03-08T06:16:36;7.20;;;5.25;;
23826;SDS011;12094;50.822;4.376;2023-03-08T06:19:06;7.85;;;5.38;;
23826;SDS011;12094;50.822;4.376;2023-03-08T06:21:41;8.50;;;5.53;;
23826;SDS011;12094;50.822;4.376;2023-03-08T06:24:10;10.43;;;6.22;;
23826;SDS011;12094;50.822;4.376;2023-03-08T06:26:41;10.32;;;6.28;;
23826;SDS011;12094;50.822;4.376;2023-03-08T06:29:10;8.80;;;6.30;;
23826;SDS011;12094;50.822;4.376;2023-03-08T06:31:39;8.23;;;5.53;;
23826;SDS011;12094;50.822;4.376;2023-03-08T06:36:42;9.82;;;6.22;;
23826;SDS011;12094;50.822;4.376;2023-03-08T06:39:15;10.48;;;6.25;;
23826;SDS011;12094;50.822;4.376;2023-03-08T06:41:44;11.88;;;7.53;;
23826;SDS011;12094;50.822;4.376;2023-03-08T06:48:13;12.57;;;7.72;;
23826;SDS011;12094;50.822;4.376;2023-03-08T06:50:55;11.45;;;7.10;;
23826;SDS011;12094;50.822;4.376;2023-03-08T06:53:27;13.25;;;7.90;;
23826;SDS011;12094;50.822;4.376;2023-03-08T06:56:08;12.43;;;7.78;;
23826;SDS011;12094;50.822;4.376;2023-03-08T06:58:40;11.60;;;7.40;;
23826;SDS011;12094;50.822;4.376;2023-03-08T07:01:09;12.45;;;8.25;;
23826;SDS011;12094;50.822;4.376;2023-03-08T07:07:04;12.38;;;7.45;;
23826;SDS011;12094;50.822;4.376;2023-03-08T07:09:42;12.23;;;8.00;;
23826;SDS011;12094;50.822;4.376;2023-03-08T07:19:14;10.43;;;7.18;;
23826;SDS011;12094;50.822;4.376;2023-03-08T07:22:20;8.95;;;6.68;;
23826;SDS011;12094;50.822;4.376;2023-03-08T07:24:48;12.30;;;7.80;;
23826;SDS011;12094;50.822;4.376;2023-03-08T07:27:16;10.90;;;7.20;;
23826;SDS011;12094;50.822;4.376;2023-03-08T07:29:45;10.52;;;6.80;;
23826;SDS011;12094;50.822;4.376;2023-03-08T07:32:18;9.43;;;6.90;;
23826;SDS011;12094;50.822;4.376;2023-03-08T07:34:46;9.93;;;6.80;;
23826;SDS011;12094;50.822;4.376;2023-03-08T07:37:16;9.80;;;6.72;;
23826;SDS011;12094;50.822;4.376;2023-03-08T07:39:47;9.77;;;6.75;;
23826;SDS011;12094;50.822;4.376;2023-03-08T07:42:14;10.45;;;6.32;;
23826;SDS011;12094;50.822;4.376;2023-03-08T07:44:59;8.23;;;5.88;;
23826;SDS011;12094;50.822;4.376;2023-03-08T07:53:22;8.55;;;5.82;;
23826;SDS011;12094;50.822;4.376;2023-03-08T07:58:54;8.70;;;5.85;;
23826;SDS011;12094;50.822;4.376;2023-03-08T08:01:37;10.35;;;6.47;;
23826;SDS011;12094;50.822;4.376;2023-03-08T08:04:12;9.20;;;5.88;;
23826;SDS011;12094;50.822;4.376;2023-03-08T08:06:54;10.25;;;5.78;;
23826;SDS011;12094;50.822;4.376;2023-03-08T08:09:25;9.43;;;5.17;;
23826;SDS011;12094;50.822;4.376;2023-03-08T08:12:00;7.68;;;5.05;;
23826;SDS011;12094;50.822;4.376;2023-03-08T08:14:42;9.50;;;5.03;;
23826;SDS011;12094;50.822;4.376;2023-03-08T08:17:11;9.80;;;4.55;;
23826;SDS011;12094;50.822;4.376;2023-03-08T08:19:40;7.88;;;5.15;;
23826;SDS011;12094;50.822;4.376;2023-03-08T08:22:08;6.78;;;4.53;;
23826;SDS011;12094;50.822;4.376;2023-03-08T08:24:36;6.10;;;4.13;;
23826;SDS011;12094;50.822;4.376;2023-03-08T08:27:03;6.70;;;4.43;;
23826;SDS011;12094;50.822;4.376;2023-03-08T08:29:35;6.70;;;4.47;;
23826;SDS011;12094;50.822;4.376;2023-03-08T08:32:03;9.10;;;5.20;;
23826;SDS011;12094;50.822;4.376;2023-03-08T08:34:32;6.60;;;3.92;;
23826;SDS011;12094;50.822;4.376;2023-03-08T08:37:00;6.18;;;4.07;;
23826;SDS011;12094;50.822;4.376;2023-03-08T08:39:28;6.70;;;4.50;;
23826;SDS011;12094;50.822;4.376;2023-03-08T08:41:56;8.23;;;4.80;;
23826;SDS011;12094;50.822;4.376;2023-03-08T08:44:23;5.88;;;3.80;;
23826;SDS011;12094;50.822;4.376;2023-03-08T08:46:54;5.88;;;3.72;;
23826;SDS011;12094;50.822;4.376;2023-03-08T08:49:25;8.07;;;4.43;;
23826;SDS011;12094;50.822;4.376;2023-03-08T08:51:52;7.38;;;4.63;;
23826;SDS011;12094;50.822;4.376;2023-03-08T08:54:22;6.13;;;4.22;;
23826;SDS011;12094;50.822;4.376;2023-03-08T08:56:51;7.23;;;4.57;;
23826;SDS011;12094;50.822;4.376;2023-03-08T08:59:45;8.52;;;4.95;;
23826;SDS011;12094;50.822;4.376;2023-03-08T09:02:12;7.93;;;5.32;;
23826;SDS011;12094;50.822;4.376;2023-03-08T09:05:13;8.45;;;5.38;;
23826;SDS011;12094;50.822;4.376;2023-03-08T09:07:56;7.55;;;5.20;;
23826;SDS011;12094;50.822;4.376;2023-03-08T09:10:28;8.43;;;5.00;;
23826;SDS011;12094;50.822;4.376;2023-03-08T09:12:58;7.43;;;4.97;;
23826;SDS011;12094;50.822;4.376;2023-03-08T09:15:25;6.22;;;4.45;;
23826;SDS011;12094;50.822;4.376;2023-03-08T09:17:54;7.10;;;4.75;;
23826;SDS011;12094;50.822;4.376;2023-03-08T09:26:54;6.72;;;4.78;;
23826;SDS011;12094;50.822;4.376;2023-03-08T09:32:39;6.63;;;4.90;;
23826;SDS011;12094;50.822;4.376;2023-03-08T09:35:07;8.68;;;5.57;;
23826;SDS011;12094;50.822;4.376;2023-03-08T09:37:36;8.07;;;5.40;;
23826;SDS011;12094;50.822;4.376;2023-03-08T09:40:16;9.65;;;5.72;;
23826;SDS011;12094;50.822;4.376;2023-03-08T09:46:24;6.53;;;4.50;;
23826;SDS011;12094;50.822;4.376;2023-03-08T09:48:58;8.52;;;6.18;;
23826;SDS011;12094;50.822;4.376;2023-03-08T09:51:28;14.55;;;7.40;;
23826;SDS011;12094;50.822;4.376;2023-03-08T09:54:03;11.50;;;6.40;;
23826;SDS011;12094;50.822;4.376;2023-03-08T09:56:36;8.30;;;5.90;;
23826;SDS011;12094;50.822;4.376;2023-03-08T09:59:54;11.15;;;7.07;;
23826;SDS011;12094;50.822;4.376;2023-03-08T10:08:17;9.02;;;5.95;;
23826;SDS011;12094;50.822;4.376;2023-03-08T10:10:57;8.93;;;4.88;;
23826;SDS011;12094;50.822;4.376;2023-03-08T10:13:35;11.80;;;6.32;;
23826;SDS011;12094;50.822;4.376;2023-03-08T10:21:49;9.25;;;6.38;;
23826;SDS011;12094;50.822;4.376;2023-03-08T10:24:20;7.90;;;5.70;;
23826;SDS011;12094;50.822;4.376;2023-03-08T10:27:14;8.63;;;5.68;;
23826;SDS011;12094;50.822;4.376;2023-03-08T10:29:55;7.32;;;5.07;;
23826;SDS011;12094;50.822;4.376;2023-03-08T10:32:24;178.43;;;122.30;;
23826;SDS011;12094;50.822;4.376;2023-03-08T10:35:00;12.38;;;8.65;;
23826;SDS011;12094;50.822;4.376;2023-03-08T10:37:31;10.30;;;5.68;;
23826;SDS011;12094;50.822;4.376;2023-03-08T10:40:00;7.78;;;5.38;;
23826;SDS011;12094;50.822;4.376;2023-03-08T10:45:09;7.82;;;5.63;;
23826;SDS011;12094;50.822;4.376;2023-03-08T10:47:41;10.63;;;6.22;;
23826;SDS011;12094;50.822;4.376;2023-03-08T10:50:20;9.77;;;6.75;;
23826;SDS011;12094;50.822;4.376;2023-03-08T10:52:51;7.85;;;5.05;;
23826;SDS011;12094;50.822;4.376;2023-03-08T10:55:20;11.73;;;7.78;;
23826;SDS011;12094;50.822;4.376;2023-03-08T10:58:20;9.35;;;5.63;;
23826;SDS011;12094;50.822;4.376;2023-03-08T11:06:55;10.05;;;7.05;;
23826;SDS011;12094;50.822;4.376;2023-03-08T11:09:23;9.80;;;6.90;;
23826;SDS011;12094;50.822;4.376;2023-03-08T11:12:29;13.35;;;8.07;;
23826;SDS011;12094;50.822;4.376;2023-03-08T11:15:36;10.50;;;7.15;;
23826;SDS011;12094;50.822;4.376;2023-03-08T11:21:28;13.75;;;7.53;;
23826;SDS011;12094;50.822;4.376;2023-03-08T11:24:28;13.77;;;8.80;;
23826;SDS011;12094;50.822;4.376;2023-03-08T11:27:31;13.57;;;8.70;;
23826;SDS011;12094;50.822;4.376;2023-03-08T11:38:40;16.55;;;10.10;;
23826;SDS011;12094;50.822;4.376;2023-03-08T11:58:47;14.18;;;10.00;;
23826;SDS011;12094;50.822;4.376;2023-03-08T12:01:23;12.00;;;9.18;;
23826;SDS011;12094;50.822;4.376;2023-03-08T12:04:12;15.95;;;10.30;;
23826;SDS011;12094;50.822;4.376;2023-03-08T12:06:45;16.33;;;10.65;;
23826;SDS011;12094;50.822;4.376;2023-03-08T12:09:21;16.95;;;11.10;;
23826;SDS011;12094;50.822;4.376;2023-03-08T12:12:15;16.35;;;10.68;;
23826;SDS011;12094;50.822;4.376;2023-03-08T12:15:04;16.25;;;10.65;;
23826;SDS011;12094;50.822;4.376;2023-03-08T12:19:04;16.90;;;11.75;;
23826;SDS011;12094;50.822;4.376;2023-03-08T12:24:46;18.90;;;11.57;;
23826;SDS011;12094;50.822;4.376;2023-03-08T12:27:34;17.38;;;11.00;;
23826;SDS011;12094;50.822;4.376;2023-03-08T12:33:14;16.35;;;11.48;;
23826;SDS011;12094;50.822;4.376;2023-03-08T12:35:50;28.50;;;13.02;;
23826;SDS011;12094;50.822;4.376;2023-03-08T12:38:33;20.55;;;12.90;;
23826;SDS011;12094;50.822;4.376;2023-03-08T12:41:04;19.20;;;12.90;;
23826;SDS011;12094;50.822;4.376;2023-03-08T12:43:56;19.65;;;12.95;;
23826;SDS011;12094;50.822;4.376;2023-03-08T12:49:48;16.85;;;11.55;;
23826;SDS011;12094;50.822;4.376;2023-03-08T12:57:45;21.60;;;13.02;;
23826;SDS011;12094;50.822;4.376;2023-03-08T13:09:04;28.00;;;16.10;;
23826;SDS011;12094;50.822;4.376;2023-03-08T13:14:25;22.05;;;12.88;;
23826;SDS011;12094;50.822;4.376;2023-03-08T13:20:21;22.20;;;14.02;;
23826;SDS011;12094;50.822;4.376;2023-03-08T13:33:35;23.73;;;16.20;;
23826;SDS011;12094;50.822;4.376;2023-03-08T13:36:18;26.13;;;15.88;;
23826;SDS011;12094;50.822;4.376;2023-03-08T13:39:02;31.83;;;21.30;;
23826;SDS011;12094;50.822;4.376;2023-03-08T13:41:36;51.08;;;25.98;;
23826;SDS011;12094;50.822;4.376;2023-03-08T13:44:24;22.30;;;14.00;;
23826;SDS011;12094;50.822;4.376;2023-03-08T13:46:56;18.75;;;12.55;;
23826;SDS011;12094;50.822;4.376;2023-03-08T13:49:36;22.63;;;13.48;;
23826;SDS011;12094;50.822;4.376;2023-03-08T13:52:18;18.75;;;12.43;;
23826;SDS011;12094;50.822;4.376;2023-03-08T13:57:37;17.27;;;11.77;;
23826;SDS011;12094;50.822;4.376;2023-03-08T14:00:27;21.17;;;13.50;;
23826;SDS011;12094;50.822;4.376;2023-03-08T14:02:56;19.27;;;12.93;;
23826;SDS011;12094;50.822;4.376;2023-03-08T14:05:41;19.27;;;13.27;;
23826;SDS011;12094;50.822;4.376;2023-03-08T14:08:18;22.63;;;14.77;;
23826;SDS011;12094;50.822;4.376;2023-03-08T14:11:01;22.58;;;14.60;;
23826;SDS011;12094;50.822;4.376;2023-03-08T14:16:40;24.60;;;15.80;;
23826;SDS011;12094;50.822;4.376;2023-03-08T14:21:58;38.97;;;19.20;;
23826;SDS011;12094;50.822;4.376;2023-03-08T14:24:40;32.30;;;17.52;;
23826;SDS011;12094;50.822;4.376;2023-03-08T14:29:44;31.45;;;17.80;;
23826;SDS011;12094;50.822;4.376;2023-03-08T14:34:49;27.88;;;16.67;;
23826;SDS011;12094;50.822;4.376;2023-03-08T14:37:29;25.63;;;15.75;;
23826;SDS011;12094;50.822;4.376;2023-03-08T14:42:56;28.35;;;15.90;;
23826;SDS011;12094;50.822;4.376;2023-03-08T14:45:41;30.98;;;17.55;;
23826;SDS011;12094;50.822;4.376;2023-03-08T14:48:35;25.30;;;15.70;;
23826;SDS011;12094;50.822;4.376;2023-03-08T14:51:04;27.00;;;16.55;;
23826;SDS011;12094;50.822;4.376;2023-03-08T14:53:34;24.95;;;16.13;;
23826;SDS011;12094;50.822;4.376;2023-03-08T14:56:05;29.17;;;17.15;;
23826;SDS011;12094;50.822;4.376;2023-03-08T14:58:43;26.10;;;17.05;;
23826;SDS011;12094;50.822;4.376;2023-03-08T15:03:59;26.25;;;17.10;;
23826;SDS011;12094;50.822;4.376;2023-03-08T15:06:30;28.40;;;17.55;;
23826;SDS011;12094;50.822;4.376;2023-03-08T15:09:02;27.83;;;16.67;;
23826;SDS011;12094;50.822;4.376;2023-03-08T15:11:35;25.17;;;16.27;;
23826;SDS011;12094;50.822;4.376;2023-03-08T15:14:02;24.10;;;15.77;;
23826;SDS011;12094;50.822;4.376;2023-03-08T15:16:29;26.55;;;17.13;;
23826;SDS011;12094;50.822;4.376;2023-03-08T15:18:57;28.63;;;16.75;;
23826;SDS011;12094;50.822;4.376;2023-03-08T15:21:29;25.85;;;16.08;;
23826;SDS011;12094;50.822;4.376;2023-03-08T15:26:31;24.38;;;16.40;;
23826;SDS011;12094;50.822;4.376;2023-03-08T15:29:00;24.65;;;16.10;;
23826;SDS011;12094;50.822;4.376;2023-03-08T15:31:31;23.92;;;14.80;;
23826;SDS011;12094;50.822;4.376;2023-03-08T15:33:59;23.95;;;15.27;;
23826;SDS011;12094;50.822;4.376;2023-03-08T15:36:30;25.17;;;17.77;;
23826;SDS011;12094;50.822;4.376;2023-03-08T15:39:03;26.90;;;15.23;;
23826;SDS011;12094;50.822;4.376;2023-03-08T15:41:32;26.80;;;16.30;;
23826;SDS011;12094;50.822;4.376;2023-03-08T15:44:03;27.80;;;16.10;;
23826;SDS011;12094;50.822;4.376;2023-03-08T15:46:30;23.60;;;14.23;;
23826;SDS011;12094;50.822;4.376;2023-03-08T15:49:05;23.52;;;14.23;;
23826;SDS011;12094;50.822;4.376;2023-03-08T15:51:36;23.75;;;14.95;;
23826;SDS011;12094;50.822;4.376;2023-03-08T15:54:13;26.17;;;15.55;;
23826;SDS011;12094;50.822;4.376;2023-03-08T15:56:43;21.08;;;13.85;;
23826;SDS011;12094;50.822;4.376;2023-03-08T15:59:11;24.98;;;15.02;;
23826;SDS011;12094;50.822;4.376;2023-03-08T16:01:43;25.10;;;14.55;;
23826;SDS011;12094;50.822;4.376;2023-03-08T16:04:11;23.83;;;14.27;;
23826;SDS011;12094;50.822;4.376;2023-03-08T16:06:40;21.63;;;13.88;;
23826;SDS011;12094;50.822;4.376;2023-03-08T16:09:09;22.88;;;13.90;;
23826;SDS011;12094;50.822;4.376;2023-03-08T16:11:38;22.52;;;14.32;;
23826;SDS011;12094;50.822;4.376;2023-03-08T16:14:06;24.40;;;15.13;;
23826;SDS011;12094;50.822;4.376;2023-03-08T16:16:35;25.27;;;15.50;;
23826;SDS011;12094;50.822;4.376;2023-03-08T16:19:11;24.88;;;15.30;;
23826;SDS011;12094;50.822;4.376;2023-03-08T16:21:39;25.27;;;16.20;;
23826;SDS011;12094;50.822;4.376;2023-03-08T16:24:06;26.90;;;15.93;;
23826;SDS011;12094;50.822;4.376;2023-03-08T16:26:41;26.58;;;16.70;;
23826;SDS011;12094;50.822;4.376;2023-03-08T16:29:51;29.80;;;17.35;;
23826;SDS011;12094;50.822;4.376;2023-03-08T16:32:36;26.45;;;16.30;;
23826;SDS011;12094;50.822;4.376;2023-03-08T16:37:57;26.13;;;15.65;;
23826;SDS011;12094;50.822;4.376;2023-03-08T16:40:39;29.90;;;16.98;;
23826;SDS011;12094;50.822;4.376;2023-03-08T16:43:06;29.50;;;18.13;;
23826;SDS011;12094;50.822;4.376;2023-03-08T16:45:38;28.58;;;17.60;;
23826;SDS011;12094;50.822;4.376;2023-03-08T16:48:21;29.70;;;17.00;;
23826;SDS011;12094;50.822;4.376;2023-03-08T16:50:55;38.45;;;20.80;;
23826;SDS011;12094;50.822;4.376;2023-03-08T16:53:33;37.08;;;20.17;;
23826;SDS011;12094;50.822;4.376;2023-03-08T16:56:04;31.85;;;18.63;;
23826;SDS011;12094;50.822;4.376;2023-03-08T17:01:13;29.35;;;17.67;;
23826;SDS011;12094;50.822;4.376;2023-03-08T17:03:49;35.40;;;19.63;;
23826;SDS011;12094;50.822;4.376;2023-03-08T17:06:28;34.83;;;19.25;;
23826;SDS011;12094;50.822;4.376;2023-03-08T17:09:02;38.80;;;21.15;;
23826;SDS011;12094;50.822;4.376;2023-03-08T17:11:33;37.60;;;21.58;;
23826;SDS011;12094;50.822;4.376;2023-03-08T17:14:07;38.63;;;22.02;;
23826;SDS011;12094;50.822;4.376;2023-03-08T17:16:44;33.83;;;21.27;;
23826;SDS011;12094;50.822;4.376;2023-03-08T17:19:29;35.88;;;20.02;;
23826;SDS011;12094;50.822;4.376;2023-03-08T17:22:11;38.13;;;21.85;;
23826;SDS011;12094;50.822;4.376;2023-03-08T17:24:51;38.47;;;22.23;;
23826;SDS011;12094;50.822;4.376;2023-03-08T17:27:19;34.70;;;20.60;;
23826;SDS011;12094;50.822;4.376;2023-03-08T17:29:49;31.27;;;20.48;;
23826;SDS011;12094;50.822;4.376;2023-03-08T17:32:18;32.80;;;19.80;;
23826;SDS011;12094;50.822;4.376;2023-03-08T17:34:46;32.78;;;19.38;;
23826;SDS011;12094;50.822;4.376;2023-03-08T17:37:13;33.50;;;20.20;;
23826;SDS011;12094;50.822;4.376;2023-03-08T17:39:44;35.00;;;19.75;;
23826;SDS011;12094;50.822;4.376;2023-03-08T17:42:13;31.60;;;18.95;;
23826;SDS011;12094;50.822;4.376;2023-03-08T17:44:41;43.83;;;26.38;;
23826;SDS011;12094;50.822;4.376;2023-03-08T17:47:10;39.75;;;23.35;;
23826;SDS011;12094;50.822;4.376;2023-03-08T17:49:39;37.28;;;21.65;;
23826;SDS011;12094;50.822;4.376;2023-03-08T17:52:07;41.20;;;22.63;;
23826;SDS011;12094;50.822;4.376;2023-03-08T17:54:35;43.00;;;22.98;;
23826;SDS011;12094;50.822;4.376;2023-03-08T17:57:02;43.63;;;23.55;;
23826;SDS011;12094;50.822;4.376;2023-03-08T17:59:31;38.97;;;22.02;;
23826;SDS011;12094;50.822;4.376;2023-03-08T18:02:00;38.22;;;21.95;;
23826;SDS011;12094;50.822;4.376;2023-03-08T18:04:30;37.40;;;21.25;;
23826;SDS011;12094;50.822;4.376;2023-03-08T18:09:46;42.15;;;21.40;;
23826;SDS011;12094;50.822;4.376;2023-03-08T18:12:15;45.97;;;23.65;;
23826;SDS011;12094;50.822;4.376;2023-03-08T18:15:00;42.05;;;24.15;;
23826;SDS011;12094;50.822;4.376;2023-03-08T18:17:28;43.78;;;24.25;;
23826;SDS011;12094;50.822;4.376;2023-03-08T18:20:19;40.92;;;23.95;;
23826;SDS011;12094;50.822;4.376;2023-03-08T18:23:06;58.38;;;31.50;;
23826;SDS011;12094;50.822;4.376;2023-03-08T18:28:09;86.05;;;36.53;;
23826;SDS011;12094;50.822;4.376;2023-03-08T18:33:16;40.80;;;23.63;;
23826;SDS011;12094;50.822;4.376;2023-03-08T18:35:55;48.88;;;27.50;;
23826;SDS011;12094;50.822;4.376;2023-03-08T18:38:29;48.05;;;27.52;;
23826;SDS011;12094;50.822;4.376;2023-03-08T18:41:14;48.53;;;26.08;;
23826;SDS011;12094;50.822;4.376;2023-03-08T18:43:58;64.25;;;37.40;;
23826;SDS011;12094;50.822;4.376;2023-03-08T18:46:32;65.70;;;32.08;;
23826;SDS011;12094;50.822;4.376;2023-03-08T18:49:07;71.18;;;35.30;;
23826;SDS011;12094;50.822;4.376;2023-03-08T18:51:39;48.78;;;25.30;;
23826;SDS011;12094;50.822;4.376;2023-03-08T18:54:32;43.63;;;23.50;;
23826;SDS011;12094;50.822;4.376;2023-03-08T18:56:59;46.78;;;24.45;;
23826;SDS011;12094;50.822;4.376;2023-03-08T18:59:27;46.67;;;24.77;;
23826;SDS011;12094;50.822;4.376;2023-03-08T19:01:56;46.28;;;24.75;;